Yatesville, Pennsylvania
Current Conditions -  °F | °C
As of 11:54 PM on Friday 19 Dec 2014 (Local Time) from KAVP Reporting Station
Overcast Overcast  
Wind Chill: -6°   Ceiling: 1800
Heat Index: -2°   Visibility: 10mi
Dew Point: -7°   Wind: 8mph
Humidity: 69%   Direction: 350°N
Pressure: 30.19"   Gusts: 20mph
Location:  41.2973°N, 75.7399°W
Report Text: KAVP 200454Z AUTO 35007G17KT 10SM OVC018 M02/M07 A3019 RMK AO2 SLP232 T10171067 400111017
Loading
Personal Weather Stations






























Interactive Weather Map New forecast layout! Learn more

10-Day Weather Forecast

Advertisements
Track Severe Weather on mobile